Terminal Aerodrome Forecast
Issued by NWS

Home | Current Version | Previous Version | Text Only | Print | Product List | Glossary On
Versions: 1 2 3 4 5 6 7 8 9 10 11 12 13 14 15 16 17 18 19 20 21 22 23 24
000
FTUS42 KMFL 242105 AAA
TAFOPF
TAF AMD
KOPF 242105Z 2421/2518 10010KT P6SM SCT040 BKN100 BKN150
     FM250000 11005KT P6SM SCT050 BKN100
     FM250300 00000KT P6SM VCSH BKN035
     FM251400 12008KT P6SM VCSH BKN035=

USA.gov is the U.S. government's official web portal to all federal, state and local government web resources and services.